Time;durP1;ratioP1;P1;durP2;ratioP2;P2;SDS_P1;SDS_P2;PMS_P1;PMS_P2;Temp;Humidity;BMP_temperature;BMP_pressure;BME280_temperature;BME280_humidity;BME280_pressure;Samples;Min_cycle;Max_cycle;Signal;HPM_P1;HPM_P2
2021/07/01 00:00:05;;;;;;;;;;;;;;;;;;5113855;27;19908;-67
2021/07/01 00:02:31;;;;;;;;;;;;;;;;;;5117103;27;19916;-67
2021/07/01 00:04:57;;;;;;;;;;;;;;;;;;5121028;27;19957;-66
2021/07/01 00:07:22;;;;;;;;;;;;;;;;;;5121502;27;20101;-66
2021/07/01 00:09:48;;;;;;;;;;;;;;;;;;5114151;27;19928;-67
2021/07/01 00:12:14;;;;;;;;;;;;;;;;;;5111117;28;19927;-68
2021/07/01 00:14:40;;;;;;;;;;;;;;;;;;5118160;27;20424;-67
2021/07/01 00:17:06;;;;;;;;;;;;;;;;;;5096125;28;20264;-67
2021/07/01 00:19:32;;;;;;;;;;;;;;;;;;5114327;27;20363;-67
2021/07/01 00:21:58;;;;;;;;;;;;;;;;;;5095668;27;19919;-67
2021/07/01 00:24:24;;;;;;;;;;;;;;;;;;5110951;27;19965;-67
2021/07/01 00:26:50;;;;;;;;;;;;;;;;;;5116825;27;20337;-67
2021/07/01 00:29:16;;;;;;;;;;;;;;;;;;5114485;27;19908;-67
2021/07/01 00:31:41;;;;;;;;;;;;;;;;;;5114782;27;19919;-67
2021/07/01 00:34:07;;;;;;;;;;;;;;;;;;5114727;27;19934;-67
2021/07/01 00:36:33;;;;;;;;;;;;;;;;;;5093980;27;19912;-67
2021/07/01 00:38:59;;;;;;;;;;;;;;;;;;5114421;27;19908;-67
2021/07/01 00:41:25;;;;;;;;;;;;;;;;;;5115711;27;20045;-67
2021/07/01 00:43:51;;;;;;;;;;;;;;;;;;5114120;27;19911;-67
2021/07/01 00:46:17;;;;;;;;;;;;;;;;;;5114781;27;19912;-67
2021/07/01 00:48:43;;;;;;;;;;;;;;;;;;5113274;27;19918;-67
2021/07/01 00:51:09;;;;;;;;;;;;;;;;;;5111742;27;19918;-67
2021/07/01 00:53:34;;;;;;;;;;;;;;;;;;5115919;27;19934;-67
2021/07/01 00:56:02;;;;;;;;;;;;;;;;;;5114246;27;19959;-67
2021/07/01 00:58:27;;;;;;;;;;;;;;;;;;5114183;27;20342;-67
2021/07/01 01:01:04;;;;;;;;;;;;;;;;;;5114249;27;19955;-67
2021/07/01 01:03:30;;;;;;;;;;;;;;;;;;5110429;27;19930;-67
2021/07/01 01:05:56;;;;;;;;;;;;;;;;;;5114475;27;19908;-67
2021/07/01 01:08:22;;;;;;;;;;;;;;;;;;5115038;27;20321;-67
2021/07/01 01:10:48;;;;;;;;;;;;;;;;;;5113772;27;19943;-67
2021/07/01 01:13:23;;;;;;;;;;;;;;;;;;5113944;27;19935;-67
2021/07/01 01:15:49;;;;;;;;;;;;;;;;;;5113811;27;19912;-67
2021/07/01 01:18:15;;;;;;;;;;;;;;;;;;5109577;28;20432;-67
2021/07/01 01:20:40;;;;;;;;;;;;;;;;;;5116940;27;19908;-67
2021/07/01 01:23:06;;;;;;;;;;;;;;;;;;5113751;27;20018;-67
2021/07/01 01:25:32;;;;;;;;;;;;;;;;;;5114247;27;19911;-67
2021/07/01 01:27:58;;;;;;;;;;;;;;;;;;5113774;27;19916;-67
2021/07/01 01:30:24;;;;;;;;;;;;;;;;;;5109409;28;20384;-67
2021/07/01 01:32:50;;;;;;;;;;;;;;;;;;5115400;28;19908;-67
2021/07/01 01:35:16;;;;;;;;;;;;;;;;;;5110134;28;20367;-68
2021/07/01 01:37:41;;;;;;;;;;;;;;;;;;5113736;27;20001;-67
2021/07/01 01:40:07;;;;;;;;;;;;;;;;;;5113830;28;20334;-67
2021/07/01 01:42:33;;;;;;;;;;;;;;;;;;5110796;28;19924;-67
2021/07/01 01:44:59;;;;;;;;;;;;;;;;;;5113199;28;19953;-67
2021/07/01 01:47:25;;;;;;;;;;;;;;;;;;5114903;28;19998;-67
2021/07/01 01:49:51;;;;;;;;;;;;;;;;;;5113816;28;20350;-68
2021/07/01 01:52:17;;;;;;;;;;;;;;;;;;5113287;28;19908;-68
2021/07/01 01:54:43;;;;;;;;;;;;;;;;;;5112805;28;19957;-68
2021/07/01 01:57:09;;;;;;;;;;;;;;;;;;5111284;28;19982;-68
2021/07/01 01:59:35;;;;;;;;;;;;;;;;;;5115582;28;20358;-68
2021/07/01 02:02:00;;;;;;;;;;;;;;;;;;5112972;28;20359;-68
2021/07/01 02:04:26;;;;;;;;;;;;;;;;;;5113830;28;19916;-68
2021/07/01 02:06:54;;;;;;;;;;;;;;;;;;5113595;28;19914;-68
2021/07/01 02:09:20;;;;;;;;;;;;;;;;;;5108993;28;19919;-68
2021/07/01 02:11:46;;;;;;;;;;;;;;;;;;5116158;28;19907;-68
2021/07/01 02:14:12;;;;;;;;;;;;;;;;;;5114767;28;19919;-68
2021/07/01 02:16:38;;;;;;;;;;;;;;;;;;5112926;28;19959;-68
2021/07/01 02:19:04;;;;;;;;;;;;;;;;;;5113006;28;19912;-68
2021/07/01 02:21:30;;;;;;;;;;;;;;;;;;5110431;28;19916;-68
2021/07/01 02:23:55;;;;;;;;;;;;;;;;;;5113505;28;20449;-68
2021/07/01 02:26:21;;;;;;;;;;;;;;;;;;5114462;28;19923;-69
2021/07/01 02:28:47;;;;;;;;;;;;;;;;;;5113221;28;20420;-69
2021/07/01 02:31:13;;;;;;;;;;;;;;;;;;5112800;28;19962;-69
2021/07/01 02:33:39;;;;;;;;;;;;;;;;;;5111630;28;20455;-69
2021/07/01 02:36:05;;;;;;;;;;;;;;;;;;5111632;28;19951;-69
2021/07/01 02:38:31;;;;;;;;;;;;;;;;;;5114550;28;19939;-69
2021/07/01 02:40:57;;;;;;;;;;;;;;;;;;5113109;28;19912;-69
2021/07/01 02:43:23;;;;;;;;;;;;;;;;;;5113366;28;19974;-69
2021/07/01 02:45:48;;;;;;;;;;;;;;;;;;5115715;27;19938;-68
2021/07/01 02:48:14;;;;;;;;;;;;;;;;;;5112811;28;19920;-69
2021/07/01 02:50:41;;;;;;;;;;;;;;;;;;5119024;27;20354;-69
2021/07/01 02:53:07;;;;;;;;;;;;;;;;;;5116624;27;19919;-68
2021/07/01 02:55:34;;;;;;;;;;;;;;;;;;5116691;27;19911;-69
2021/07/01 02:58:00;;;;;;;;;;;;;;;;;;5116712;27;20423;-69
2021/07/01 03:00:26;;;;;;;;;;;;;;;;;;5112157;27;19912;-69
2021/07/01 03:02:52;;;;;;;;;;;;;;;;;;5117765;27;19916;-69
2021/07/01 03:05:18;;;;;;;;;;;;;;;;;;5117425;27;19919;-69
2021/07/01 03:07:44;;;;;;;;;;;;;;;;;;5116894;27;19912;-69
2021/07/01 03:10:10;;;;;;;;;;;;;;;;;;5115621;27;20388;-69
2021/07/01 03:12:36;;;;;;;;;;;;;;;;;;5113937;27;20416;-69
2021/07/01 03:15:02;;;;;;;;;;;;;;;;;;5115777;27;20401;-69
2021/07/01 03:17:27;;;;;;;;;;;;;;;;;;5117554;27;19912;-69
2021/07/01 03:19:53;;;;;;;;;;;;;;;;;;5116247;27;20371;-69
2021/07/01 03:22:19;;;;;;;;;;;;;;;;;;5116293;27;19927;-69
2021/07/01 03:24:45;;;;;;;;;;;;;;;;;;5114871;27;20354;-69
2021/07/01 03:27:11;;;;;;;;;;;;;;;;;;5094704;28;19912;-69
2021/07/01 03:29:37;;;;;;;;;;;;;;;;;;5101079;28;19907;-69
2021/07/01 03:32:03;;;;;;;;;;;;;;;;;;5115529;27;19956;-69
2021/07/01 03:34:29;;;;;;;;;;;;;;;;;;5115823;27;19976;-69
2021/07/01 03:36:54;;;;;;;;;;;;;;;;;;5115535;27;20008;-69
2021/07/01 03:39:20;;;;;;;;;;;;;;;;;;5111574;28;20386;-69
2021/07/01 03:41:46;;;;;;;;;;;;;;;;;;5100550;28;19908;-69
2021/07/01 03:44:13;;;;;;;;;;;;;;;;;;5117081;27;19964;-69
2021/07/01 03:46:41;;;;;;;;;;;;;;;;;;5115672;27;19942;-69
2021/07/01 03:49:07;;;;;;;;;;;;;;;;;;5115618;27;20353;-68
2021/07/01 03:51:33;;;;;;;;;;;;;;;;;;5112871;27;19916;-69
2021/07/01 03:53:58;;;;;;;;;;;;;;;;;;5115412;27;19919;-69
2021/07/01 03:56:24;;;;;;;;;;;;;;;;;;5116022;27;20363;-69
2021/07/01 03:58:50;;;;;;;;;;;;;;;;;;5115224;27;19953;-69
2021/07/01 04:01:16;;;;;;;;;;;;;;;;;;5115314;27;19978;-69
2021/07/01 04:03:42;;;;;;;;;;;;;;;;;;5114300;27;19919;-69
2021/07/01 04:06:08;;;;;;;;;;;;;;;;;;5112917;27;19919;-69
2021/07/01 04:08:36;;;;;;;;;;;;;;;;;;5117678;27;20370;-69
2021/07/01 04:11:04;;;;;;;;;;;;;;;;;;5115048;27;19926;-69
2021/07/01 04:13:30;;;;;;;;;;;;;;;;;;5095885;28;19998;-69
2021/07/01 04:15:56;;;;;;;;;;;;;;;;;;5115119;27;19998;-69
2021/07/01 04:18:22;;;;;;;;;;;;;;;;;;5110910;28;20382;-68
2021/07/01 04:20:47;;;;;;;;;;;;;;;;;;5117657;27;19908;-68
2021/07/01 04:23:13;;;;;;;;;;;;;;;;;;5116153;27;19924;-68
2021/07/01 04:25:39;;;;;;;;;;;;;;;;;;5115283;27;19998;-69
2021/07/01 04:28:05;;;;;;;;;;;;;;;;;;5114345;27;19994;-68
2021/07/01 04:30:31;;;;;;;;;;;;;;;;;;5112030;27;19912;-68
2021/07/01 04:32:57;;;;;;;;;;;;;;;;;;5115220;27;19908;-68
2021/07/01 04:35:23;;;;;;;;;;;;;;;;;;5115434;27;19945;-68
2021/07/01 04:37:49;;;;;;;;;;;;;;;;;;5114439;27;20381;-68
2021/07/01 04:40:15;;;;;;;;;;;;;;;;;;5114954;27;19912;-68
2021/07/01 04:42:41;;;;;;;;;;;;;;;;;;5113035;27;20045;-68
2021/07/01 04:45:07;;;;;;;;;;;;;;;;;;5112982;27;19989;-68
2021/07/01 04:47:33;;;;;;;;;;;;;;;;;;5116000;27;19965;-68
2021/07/01 04:49:58;;;;;;;;;;;;;;;;;;5114097;27;19919;-69
2021/07/01 04:52:27;;;;;;;;;;;;;;;;;;5114029;27;19912;-68
2021/07/01 04:54:53;;;;;;;;;;;;;;;;;;5096205;27;19911;-69
2021/07/01 04:57:18;;;;;;;;;;;;;;;;;;5109086;28;19934;-69
2021/07/01 04:59:44;;;;;;;;;;;;;;;;;;5117357;27;19969;-68
2021/07/01 05:02:10;;;;;;;;;;;;;;;;;;5114052;27;19915;-68
2021/07/01 05:04:36;;;;;;;;;;;;;;;;;;5114658;27;20343;-65
2021/07/01 05:07:02;;;;;;;;;;;;;;;;;;5113677;27;19932;-65
2021/07/01 05:09:28;;;;;;;;;;;;;;;;;;5109972;27;19927;-66
2021/07/01 05:11:54;;;;;;;;;;;;;;;;;;5114698;27;20010;-66
2021/07/01 05:14:20;;;;;;;;;;;;;;;;;;5116229;27;20020;-66
2021/07/01 05:16:47;;;;;;;;;;;;;;;;;;5113589;27;20301;-67
2021/07/01 05:19:13;;;;;;;;;;;;;;;;;;5114254;27;20000;-66
2021/07/01 05:21:38;;;;;;;;;;;;;;;;;;5112013;27;20309;-65
2021/07/01 05:24:05;;;;;;;;;;;;;;;;;;5112878;27;19916;-67
2021/07/01 05:26:30;;;;;;;;;;;;;;;;;;5114850;27;20289;-67
2021/07/01 05:28:56;;;;;;;;;;;;;;;;;;5114320;27;19912;-67
2021/07/01 05:31:22;;;;;;;;;;;;;;;;;;5113782;27;19919;-67
2021/07/01 05:33:48;;;;;;;;;;;;;;;;;;5113214;27;19922;-66
2021/07/01 05:36:14;;;;;;;;;;;;;;;;;;5109506;28;19938;-67
2021/07/01 05:38:40;;;;;;;;;;;;;;;;;;5116705;27;19911;-67
2021/07/01 05:41:06;;;;;;;;;;;;;;;;;;5113486;28;19911;-67
2021/07/01 05:43:32;;;;;;;;;;;;;;;;;;5113752;28;19974;-67
2021/07/01 05:45:58;;;;;;;;;;;;;;;;;;5113392;28;20218;-66
2021/07/01 05:48:25;;;;;;;;;;;;;;;;;;5109028;28;20436;-68
2021/07/01 05:51:01;;;;;;;;;;;;;;;;;;5115534;28;19907;-67
2021/07/01 05:53:30;;;;;;;;;;;;;;;;;;5116634;28;19912;-67
2021/07/01 05:55:56;;;;;;;;;;;;;;;;;;5113511;28;19934;-67
2021/07/01 05:58:22;;;;;;;;;;;;;;;;;;5113206;28;20363;-67
2021/07/01 06:00:48;;;;;;;;;;;;;;;;;;5095045;28;19961;-67
2021/07/01 06:03:14;;;;;;;;;;;;;;;;;;5109447;28;19920;-67
2021/07/01 06:05:40;;;;;;;;;;;;;;;;;;5116403;28;19908;-67
2021/07/01 06:08:06;;;;;;;;;;;;;;;;;;5094659;28;19918;-67
2021/07/01 06:10:32;;;;;;;;;;;;;;;;;;5112998;28;19926;-64
2021/07/01 06:12:57;;;;;;;;;;;;;;;;;;5112863;28;19947;-64
2021/07/01 06:15:23;;;;;;;;;;;;;;;;;;5109631;28;19912;-64
2021/07/01 06:17:49;;;;;;;;;;;;;;;;;;5115518;28;19987;-64
2021/07/01 06:20:15;;;;;;;;;;;;;;;;;;5115367;27;19961;-64
2021/07/01 06:22:41;;;;;;;;;;;;;;;;;;5117191;27;19965;-64
2021/07/01 06:25:07;;;;;;;;;;;;;;;;;;5116351;27;19960;-64
2021/07/01 06:27:35;;;;;;;;;;;;;;;;;;5114761;27;19942;-64
2021/07/01 06:30:04;;;;;;;;;;;;;;;;;;5116976;27;20282;-64
2021/07/01 06:32:29;;;;;;;;;;;;;;;;;;5118342;27;19915;-63
2021/07/01 06:34:55;;;;;;;;;;;;;;;;;;5097386;28;20119;-64
2021/07/01 06:37:21;;;;;;;;;;;;;;;;;;5115429;27;20270;-64
2021/07/01 06:39:48;;;;;;;;;;;;;;;;;;5116315;27;19918;-64
2021/07/01 06:42:14;;;;;;;;;;;;;;;;;;5113244;27;19928;-63
2021/07/01 06:44:39;;;;;;;;;;;;;;;;;;5119571;27;19908;-63
2021/07/01 06:47:05;;;;;;;;;;;;;;;;;;5115622;27;19919;-62
2021/07/01 06:49:32;;;;;;;;;;;;;;;;;;5116633;27;19957;-63
2021/07/01 06:51:57;;;;;;;;;;;;;;;;;;5116281;27;20326;-63
2021/07/01 06:54:24;;;;;;;;;;;;;;;;;;5112726;27;20366;-63
2021/07/01 06:56:50;;;;;;;;;;;;;;;;;;5117998;27;20388;-63
2021/07/01 06:59:16;;;;;;;;;;;;;;;;;;5116801;27;19908;-62
2021/07/01 07:01:42;;;;;;;;;;;;;;;;;;5116339;27;19915;-64
2021/07/01 07:04:08;;;;;;;;;;;;;;;;;;5116314;27;20282;-64
2021/07/01 07:06:35;;;;;;;;;;;;;;;;;;5113899;27;19955;-63
2021/07/01 07:09:01;;;;;;;;;;;;;;;;;;5115086;27;20296;-64
2021/07/01 07:11:28;;;;;;;;;;;;;;;;;;5117603;27;19916;-64
2021/07/01 07:13:54;;;;;;;;;;;;;;;;;;5115765;27;20422;-65
2021/07/01 07:16:19;;;;;;;;;;;;;;;;;;5116187;27;19994;-66
2021/07/01 07:18:45;;;;;;;;;;;;;;;;;;5114699;27;19912;-65
2021/07/01 07:21:15;;;;;;;;;;;;;;;;;;5112779;27;19995;-64
2021/07/01 07:23:41;;;;;;;;;;;;;;;;;;5113854;27;20289;-65
2021/07/01 07:26:09;;;;;;;;;;;;;;;;;;5119080;27;19915;-65
2021/07/01 07:28:38;;;;;;;;;;;;;;;;;;5114368;27;20107;-65
2021/07/01 07:31:04;;;;;;;;;;;;;;;;;;5114713;28;20022;-65
2021/07/01 07:33:30;;;;;;;;;;;;;;;;;;5111015;27;19999;-65
2021/07/01 07:35:56;;;;;;;;;;;;;;;;;;5116469;27;19908;-65
2021/07/01 07:38:22;;;;;;;;;;;;;;;;;;5115827;27;19907;-65
2021/07/01 07:40:52;;;;;;;;;;;;;;;;;;5115889;27;20283;-65
2021/07/01 07:43:19;;;;;;;;;;;;;;;;;;5114093;27;19924;-64
2021/07/01 07:45:45;;;;;;;;;;;;;;;;;;5127175;27;20409;-65
2021/07/01 07:48:11;;;;;;;;;;;;;;;;;;5112663;27;19971;-64
2021/07/01 07:50:37;;;;;;;;;;;;;;;;;;5117287;27;19907;-65
2021/07/01 07:53:03;;;;;;;;;;;;;;;;;;5112833;27;19916;-65
2021/07/01 07:55:29;;;;;;;;;;;;;;;;;;5115292;27;19916;-65
2021/07/01 07:57:55;;;;;;;;;;;;;;;;;;5114624;27;19967;-65
2021/07/01 08:00:21;;;;;;;;;;;;;;;;;;5108290;27;20378;-65
2021/07/01 08:02:47;;;;;;;;;;;;;;;;;;5116371;27;20004;-65
2021/07/01 08:05:12;;;;;;;;;;;;;;;;;;5114447;27;20328;-65
2021/07/01 08:07:38;;;;;;;;;;;;;;;;;;5096211;28;19916;-65
2021/07/01 08:10:07;;;;;;;;;;;;;;;;;;5114078;27;20045;-65
2021/07/01 08:12:33;;;;;;;;;;;;;;;;;;5108726;28;20291;-65
2021/07/01 08:15:00;;;;;;;;;;;;;;;;;;5128838;27;19915;-65
2021/07/01 08:17:26;;;;;;;;;;;;;;;;;;5115565;27;19907;-65
2021/07/01 08:19:51;;;;;;;;;;;;;;;;;;5114845;27;20022;-65
2021/07/01 08:22:17;;;;;;;;;;;;;;;;;;5114245;27;20502;-65
2021/07/01 08:24:43;;;;;;;;;;;;;;;;;;5092194;27;19915;-65
2021/07/01 08:27:09;;;;;;;;;;;;;;;;;;5112435;27;20298;-64
2021/07/01 08:29:35;;;;;;;;;;;;;;;;;;5115811;27;20003;-64
2021/07/01 08:32:05;;;;;;;;;;;;;;;;;;5114175;27;20320;-64
2021/07/01 08:34:31;;;;;;;;;;;;;;;;;;5103600;27;20002;-65
2021/07/01 08:36:57;;;;;;;;;;;;;;;;;;5114203;27;20397;-66
2021/07/01 08:39:23;;;;;;;;;;;;;;;;;;5110166;27;19965;-66
2021/07/01 08:41:49;;;;;;;;;;;;;;;;;;5116799;27;19912;-66
2021/07/01 08:44:17;;;;;;;;;;;;;;;;;;5121950;27;19919;-65
2021/07/01 08:46:42;;;;;;;;;;;;;;;;;;5118617;27;19916;-66
2021/07/01 08:49:08;;;;;;;;;;;;;;;;;;5114035;27;19998;-67
2021/07/01 08:51:34;;;;;;;;;;;;;;;;;;5111264;27;19912;-66
2021/07/01 08:54:00;;;;;;;;;;;;;;;;;;5103805;27;19908;-67
2021/07/01 08:56:27;;;;;;;;;;;;;;;;;;5114832;27;20286;-66
2021/07/01 08:58:53;;;;;;;;;;;;;;;;;;5104482;27;20355;-67
2021/07/01 09:01:19;;;;;;;;;;;;;;;;;;5113343;27;19922;-67
2021/07/01 09:03:45;;;;;;;;;;;;;;;;;;5114090;27;20298;-66
2021/07/01 09:06:11;;;;;;;;;;;;;;;;;;5111108;27;20013;-66
2021/07/01 09:08:37;;;;;;;;;;;;;;;;;;5129325;27;19908;-67
2021/07/01 09:11:04;;;;;;;;;;;;;;;;;;5115378;27;19920;-66
2021/07/01 09:13:30;;;;;;;;;;;;;;;;;;5111964;27;19923;-66
2021/07/01 09:15:56;;;;;;;;;;;;;;;;;;5114715;27;19912;-67
2021/07/01 09:18:21;;;;;;;;;;;;;;;;;;5096942;28;20283;-67
2021/07/01 09:20:47;;;;;;;;;;;;;;;;;;5115646;27;19914;-67
2021/07/01 09:23:13;;;;;;;;;;;;;;;;;;5114214;27;19942;-67
2021/07/01 09:25:39;;;;;;;;;;;;;;;;;;5111551;27;20355;-67
2021/07/01 09:28:05;;;;;;;;;;;;;;;;;;5111834;27;19919;-67
2021/07/01 09:30:31;;;;;;;;;;;;;;;;;;5098125;28;19915;-67
2021/07/01 09:32:57;;;;;;;;;;;;;;;;;;5112780;28;20002;-67
2021/07/01 09:35:23;;;;;;;;;;;;;;;;;;5120605;28;19908;-67
2021/07/01 09:37:49;;;;;;;;;;;;;;;;;;5121434;27;19920;-67
2021/07/01 09:40:15;;;;;;;;;;;;;;;;;;5120284;27;19911;-66
2021/07/01 09:42:41;;;;;;;;;;;;;;;;;;5080997;28;19920;-67
2021/07/01 09:45:07;;;;;;;;;;;;;;;;;;5110026;28;19912;-66
2021/07/01 09:47:33;;;;;;;;;;;;;;;;;;5106829;28;19912;-67
2021/07/01 09:49:58;;;;;;;;;;;;;;;;;;5107349;28;19968;-64
2021/07/01 09:52:24;;;;;;;;;;;;;;;;;;5091970;28;20378;-65
2021/07/01 09:54:52;;;;;;;;;;;;;;;;;;5120027;27;19923;-66
2021/07/01 09:57:18;;;;;;;;;;;;;;;;;;5097111;28;19912;-65
2021/07/01 09:59:44;;;;;;;;;;;;;;;;;;5121051;27;19923;-65
2021/07/01 10:02:10;;;;;;;;;;;;;;;;;;5117046;27;20404;-65
2021/07/01 10:04:36;;;;;;;;;;;;;;;;;;5117408;27;20035;-67
2021/07/01 10:07:01;;;;;;;;;;;;;;;;;;5115214;27;19923;-67
2021/07/01 10:09:27;;;;;;;;;;;;;;;;;;5106464;28;20303;-65
2021/07/01 10:11:54;;;;;;;;;;;;;;;;;;5098338;28;19912;-66
2021/07/01 10:14:22;;;;;;;;;;;;;;;;;;5098812;28;19912;-66
2021/07/01 10:16:48;;;;;;;;;;;;;;;;;;5095759;28;20279;-65
2021/07/01 10:19:14;;;;;;;;;;;;;;;;;;5101245;28;19919;-65
2021/07/01 10:21:40;;;;;;;;;;;;;;;;;;5103625;28;19998;-65
2021/07/01 10:24:06;;;;;;;;;;;;;;;;;;5102692;28;19916;-65
2021/07/01 10:26:32;;;;;;;;;;;;;;;;;;5105642;28;19991;-65
2021/07/01 10:28:58;;;;;;;;;;;;;;;;;;5115601;27;20008;-60
2021/07/01 10:31:24;;;;;;;;;;;;;;;;;;5099904;28;19908;-60
2021/07/01 10:33:50;;;;;;;;;;;;;;;;;;5102632;28;20293;-60
2021/07/01 10:36:16;;;;;;;;;;;;;;;;;;5102533;28;19923;-60
2021/07/01 10:38:41;;;;;;;;;;;;;;;;;;5103013;28;20382;-60
2021/07/01 10:41:07;;;;;;;;;;;;;;;;;;5099847;28;19908;-60
2021/07/01 10:43:33;;;;;;;;;;;;;;;;;;5101082;28;20310;-60
2021/07/01 10:45:59;;;;;;;;;;;;;;;;;;5101217;28;19912;-61
2021/07/01 10:48:25;;;;;;;;;;;;;;;;;;5097583;28;20366;-60
2021/07/01 10:50:51;;;;;;;;;;;;;;;;;;5103204;28;19942;-60
2021/07/01 10:53:17;;;;;;;;;;;;;;;;;;5103392;28;20347;-60
2021/07/01 10:55:42;;;;;;;;;;;;;;;;;;5102108;28;19939;-60
2021/07/01 10:58:08;;;;;;;;;;;;;;;;;;5100720;28;20119;-60
2021/07/01 11:00:34;;;;;;;;;;;;;;;;;;5101139;28;19912;-61
2021/07/01 11:03:00;;;;;;;;;;;;;;;;;;5101770;28;19979;-60
2021/07/01 11:05:26;;;;;;;;;;;;;;;;;;5104132;27;19923;-60
2021/07/01 11:07:52;;;;;;;;;;;;;;;;;;5101164;28;19916;-61
2021/07/01 11:10:18;;;;;;;;;;;;;;;;;;5113124;27;19930;-60
2021/07/01 11:12:44;;;;;;;;;;;;;;;;;;5119876;27;19973;-60
2021/07/01 11:15:10;;;;;;;;;;;;;;;;;;5120573;27;19964;-60
2021/07/01 11:17:39;;;;;;;;;;;;;;;;;;5109659;27;20383;-60
2021/07/01 11:20:05;;;;;;;;;;;;;;;;;;5113462;27;19916;-60
2021/07/01 11:22:31;;;;;;;;;;;;;;;;;;5114426;27;19927;-60
2021/07/01 11:24:57;;;;;;;;;;;;;;;;;;5114492;27;20255;-60
2021/07/01 11:27:23;;;;;;;;;;;;;;;;;;5110257;27;19924;-60
2021/07/01 11:29:49;;;;;;;;;;;;;;;;;;5113015;27;20394;-60
2021/07/01 11:32:15;;;;;;;;;;;;;;;;;;5115513;27;19969;-61
2021/07/01 11:34:41;;;;;;;;;;;;;;;;;;5114777;27;20349;-60
2021/07/01 11:37:06;;;;;;;;;;;;;;;;;;5113809;27;19912;-61
2021/07/01 11:39:32;;;;;;;;;;;;;;;;;;5107619;27;20011;-61
2021/07/01 11:42:01;;;;;;;;;;;;;;;;;;5113266;27;20691;-61
2021/07/01 11:44:28;;;;;;;;;;;;;;;;;;5109204;27;19911;-61
2021/07/01 11:46:54;;;;;;;;;;;;;;;;;;5112807;27;19939;-61
2021/07/01 11:49:21;;;;;;;;;;;;;;;;;;5106485;27;20270;-61
2021/07/01 11:51:47;;;;;;;;;;;;;;;;;;5109784;27;19919;-61
2021/07/01 11:54:13;;;;;;;;;;;;;;;;;;5110515;28;19916;-61
2021/07/01 11:59:40;;;;;;;;;;;;;;;;;;5024683;28;19917;-61
2021/07/01 12:02:06;;;;;;;;;;;;;;;;;;5095912;27;20323;-61
2021/07/01 12:04:32;;;;;;;;;;;;;;;;;;5113341;27;19912;-61
2021/07/01 12:06:58;;;;;;;;;;;;;;;;;;5111745;27;20390;-61
2021/07/01 12:09:24;;;;;;;;;;;;;;;;;;5125616;27;20319;-61
2021/07/01 12:11:49;;;;;;;;;;;;;;;;;;5116763;27;19916;-61
2021/07/01 12:14:15;;;;;;;;;;;;;;;;;;5116998;27;19911;-61
2021/07/01 12:16:41;;;;;;;;;;;;;;;;;;5114696;27;20012;-61
2021/07/01 12:19:07;;;;;;;;;;;;;;;;;;5104684;27;20341;-61
2021/07/01 12:21:34;;;;;;;;;;;;;;;;;;5112372;27;19912;-62
2021/07/01 12:24:00;;;;;;;;;;;;;;;;;;5113165;27;19915;-62
2021/07/01 12:26:26;;;;;;;;;;;;;;;;;;5115630;27;20362;-62
2021/07/01 12:28:52;;;;;;;;;;;;;;;;;;5111910;27;19939;-62
2021/07/01 12:31:18;;;;;;;;;;;;;;;;;;5114639;27;19918;-62
2021/07/01 12:33:44;;;;;;;;;;;;;;;;;;5112530;27;20374;-62
2021/07/01 12:36:10;;;;;;;;;;;;;;;;;;5112640;27;19967;-62
2021/07/01 12:38:36;;;;;;;;;;;;;;;;;;5126839;27;20400;-62
2021/07/01 12:41:02;;;;;;;;;;;;;;;;;;5115499;27;19998;-62
2021/07/01 12:43:27;;;;;;;;;;;;;;;;;;5113606;27;19926;-62
2021/07/01 12:45:53;;;;;;;;;;;;;;;;;;5096223;27;19911;-62
2021/07/01 12:48:19;;;;;;;;;;;;;;;;;;5103824;28;20588;-62
2021/07/01 12:50:45;;;;;;;;;;;;;;;;;;5117628;27;19968;-62
2021/07/01 12:53:11;;;;;;;;;;;;;;;;;;5122854;27;20347;-62
2021/07/01 12:55:37;;;;;;;;;;;;;;;;;;5119410;27;20266;-62
2021/07/01 12:58:03;;;;;;;;;;;;;;;;;;5113693;27;19911;-62
2021/07/01 13:00:29;;;;;;;;;;;;;;;;;;5110470;27;19912;-62
2021/07/01 13:02:55;;;;;;;;;;;;;;;;;;5115068;27;19915;-62
2021/07/01 13:05:21;;;;;;;;;;;;;;;;;;5116534;27;20347;-62
2021/07/01 13:07:48;;;;;;;;;;;;;;;;;;5119413;27;19911;-62
2021/07/01 13:10:14;;;;;;;;;;;;;;;;;;5121678;27;19926;-62
2021/07/01 13:12:40;;;;;;;;;;;;;;;;;;5112373;27;20357;-62
2021/07/01 13:15:06;;;;;;;;;;;;;;;;;;5112201;27;19919;-62
2021/07/01 13:17:32;;;;;;;;;;;;;;;;;;5092063;28;19908;-62
2021/07/01 13:19:58;;;;;;;;;;;;;;;;;;5111170;27;19999;-62
2021/07/01 13:22:24;;;;;;;;;;;;;;;;;;5113872;27;19920;-61
2021/07/01 13:24:50;;;;;;;;;;;;;;;;;;5112674;27;19915;-62
2021/07/01 13:27:16;;;;;;;;;;;;;;;;;;5108341;28;19920;-62
2021/07/01 13:29:42;;;;;;;;;;;;;;;;;;5116021;27;19915;-63
2021/07/01 13:32:08;;;;;;;;;;;;;;;;;;5114982;27;19947;-63
2021/07/01 13:34:33;;;;;;;;;;;;;;;;;;5113582;27;20267;-62
2021/07/01 13:36:59;;;;;;;;;;;;;;;;;;5111736;27;20005;-61
2021/07/01 13:39:25;;;;;;;;;;;;;;;;;;5125172;27;20275;-62
2021/07/01 13:41:51;;;;;;;;;;;;;;;;;;5115391;27;19908;-62
2021/07/01 13:44:17;;;;;;;;;;;;;;;;;;5116122;28;19938;-62
2021/07/01 13:46:43;;;;;;;;;;;;;;;;;;5113616;28;20034;-62
2021/07/01 13:49:10;;;;;;;;;;;;;;;;;;5104207;28;19919;-62
2021/07/01 13:51:36;;;;;;;;;;;;;;;;;;5110050;28;19919;-61
2021/07/01 13:54:01;;;;;;;;;;;;;;;;;;5127204;28;19994;-62
2021/07/01 13:56:27;;;;;;;;;;;;;;;;;;5114627;28;19907;-62
2021/07/01 13:58:53;;;;;;;;;;;;;;;;;;5113119;28;19945;-62
2021/07/01 14:01:19;;;;;;;;;;;;;;;;;;5112997;28;20327;-62
2021/07/01 14:03:46;;;;;;;;;;;;;;;;;;5112485;28;19920;-61
2021/07/01 14:06:12;;;;;;;;;;;;;;;;;;5110588;28;19964;-61
2021/07/01 14:08:37;;;;;;;;;;;;;;;;;;5124365;28;19908;-62
2021/07/01 14:11:03;;;;;;;;;;;;;;;;;;5115760;28;19919;-61
2021/07/01 14:13:29;;;;;;;;;;;;;;;;;;5112780;28;19925;-62
2021/07/01 14:15:55;;;;;;;;;;;;;;;;;;5113351;28;19916;-61
2021/07/01 14:18:21;;;;;;;;;;;;;;;;;;5099905;28;19912;-62
2021/07/01 14:20:47;;;;;;;;;;;;;;;;;;5114791;28;19908;-62
2021/07/01 14:23:13;;;;;;;;;;;;;;;;;;5122992;28;20015;-62
2021/07/01 14:25:40;;;;;;;;;;;;;;;;;;5115944;28;19985;-59
2021/07/01 14:28:06;;;;;;;;;;;;;;;;;;5111370;28;19911;-60
2021/07/01 14:30:32;;;;;;;;;;;;;;;;;;5109903;28;20332;-59
2021/07/01 14:32:58;;;;;;;;;;;;;;;;;;5113947;28;20320;-59
2021/07/01 14:35:25;;;;;;;;;;;;;;;;;;5113291;28;19907;-59
2021/07/01 14:37:51;;;;;;;;;;;;;;;;;;5118270;28;19922;-60
2021/07/01 14:40:17;;;;;;;;;;;;;;;;;;5121224;27;19912;-61
2021/07/01 14:42:42;;;;;;;;;;;;;;;;;;5113931;27;19951;-60
2021/07/01 14:45:08;;;;;;;;;;;;;;;;;;5113942;27;19915;-60
2021/07/01 14:47:34;;;;;;;;;;;;;;;;;;5111668;27;20320;-60
2021/07/01 14:50:00;;;;;;;;;;;;;;;;;;5114832;27;19911;-61
2021/07/01 14:52:26;;;;;;;;;;;;;;;;;;5117917;27;20362;-60
2021/07/01 14:54:54;;;;;;;;;;;;;;;;;;5127677;27;19911;-61
2021/07/01 14:57:21;;;;;;;;;;;;;;;;;;5111658;28;19923;-60
2021/07/01 14:59:47;;;;;;;;;;;;;;;;;;5119942;27;20293;-60
2021/07/01 15:02:13;;;;;;;;;;;;;;;;;;5116310;27;20358;-61
2021/07/01 15:04:40;;;;;;;;;;;;;;;;;;5116298;27;19968;-60
2021/07/01 15:07:06;;;;;;;;;;;;;;;;;;5115907;27;20538;-60
2021/07/01 15:09:31;;;;;;;;;;;;;;;;;;5127590;27;19928;-60
2021/07/01 15:11:57;;;;;;;;;;;;;;;;;;5116957;27;19908;-60
2021/07/01 15:14:23;;;;;;;;;;;;;;;;;;5117242;27;19908;-61
2021/07/01 15:16:49;;;;;;;;;;;;;;;;;;5115182;27;19915;-60
2021/07/01 15:19:15;;;;;;;;;;;;;;;;;;5108304;27;19912;-61
2021/07/01 15:21:41;;;;;;;;;;;;;;;;;;5095701;27;19916;-60
2021/07/01 15:24:07;;;;;;;;;;;;;;;;;;5115013;27;20371;-60
2021/07/01 15:26:33;;;;;;;;;;;;;;;;;;5117153;27;19912;-60
2021/07/01 15:28:59;;;;;;;;;;;;;;;;;;5114642;27;20290;-60
2021/07/01 15:31:26;;;;;;;;;;;;;;;;;;5115933;27;20294;-60
2021/07/01 15:33:52;;;;;;;;;;;;;;;;;;5116032;27;20277;-60
2021/07/01 15:36:21;;;;;;;;;;;;;;;;;;5111058;28;20006;-60
2021/07/01 15:38:47;;;;;;;;;;;;;;;;;;5126512;27;19961;-60
2021/07/01 15:41:13;;;;;;;;;;;;;;;;;;5116090;27;19912;-61
2021/07/01 15:43:39;;;;;;;;;;;;;;;;;;5115686;27;19935;-60
2021/07/01 15:46:05;;;;;;;;;;;;;;;;;;5115468;27;19911;-61
2021/07/01 15:48:31;;;;;;;;;;;;;;;;;;5103220;27;19919;-61
2021/07/01 15:50:57;;;;;;;;;;;;;;;;;;5116039;27;19954;-60
2021/07/01 15:53:23;;;;;;;;;;;;;;;;;;5125700;27;19987;-61
2021/07/01 15:55:48;;;;;;;;;;;;;;;;;;5118593;27;19918;-61
2021/07/01 15:58:14;;;;;;;;;;;;;;;;;;5114513;27;19911;-61
2021/07/01 16:00:40;;;;;;;;;;;;;;;;;;5113692;27;19919;-60
2021/07/01 16:03:06;;;;;;;;;;;;;;;;;;5114213;27;20309;-61
2021/07/01 16:05:32;;;;;;;;;;;;;;;;;;5116940;27;19908;-61
2021/07/01 16:07:58;;;;;;;;;;;;;;;;;;5122604;27;19957;-61
2021/07/01 16:10:25;;;;;;;;;;;;;;;;;;5121814;27;20333;-61
2021/07/01 16:12:51;;;;;;;;;;;;;;;;;;5113675;27;19911;-61
2021/07/01 16:15:17;;;;;;;;;;;;;;;;;;5092804;28;19912;-61
2021/07/01 16:17:43;;;;;;;;;;;;;;;;;;5106125;27;20362;-62
2021/07/01 16:20:09;;;;;;;;;;;;;;;;;;5112841;27;19991;-60
2021/07/01 16:22:35;;;;;;;;;;;;;;;;;;5090460;28;19973;-59
2021/07/01 16:25:01;;;;;;;;;;;;;;;;;;5107286;27;19956;-60
2021/07/01 16:27:27;;;;;;;;;;;;;;;;;;5104176;27;19912;-60
2021/07/01 16:29:52;;;;;;;;;;;;;;;;;;5116747;27;19976;-59
2021/07/01 16:32:19;;;;;;;;;;;;;;;;;;5117021;27;20371;-59
2021/07/01 16:34:45;;;;;;;;;;;;;;;;;;5113090;27;20287;-59
2021/07/01 16:37:11;;;;;;;;;;;;;;;;;;5114655;27;19982;-59
2021/07/01 16:39:37;;;;;;;;;;;;;;;;;;5108220;27;19999;-60